This is the latest recevied weather packets stored in our database for station/object R6HABA-13. If no packets are shown the sender has not sent any weather packets the latest 10 day(s).
| Time | Temp. | Humidity | Pressure | Rain* | Wind** | Luminosity | Snow |
|---|---|---|---|---|---|---|---|
| 1777881603 | 20.56° C | 52% | 1012 hPa | - | 2.24 m/s, 249° | - | - |
| 1777879803 | 17.22° C | 55% | 1012 hPa | - | 1.79 m/s, 241° | - | - |
| 1777878902 | 17.22° C | 55% | 1012 hPa | - | 1.79 m/s, 241° | - | - |
| 1777878003 | 17.22° C | 55% | 1012 hPa | - | 1.79 m/s, 241° | - | - |
| 1777877102 | 17.22° C | 55% | 1012 hPa | - | 1.79 m/s, 241° | - | - |
| 1777876203 | 17.22° C | 55% | 1012 hPa | - | 1.79 m/s, 241° | - | - |
| 1777875303 | 17.22° C | 55% | 1012 hPa | - | 1.79 m/s, 241° | - | - |
| 1777874531 | -17.78° C | 59% | 1012 hPa | - | 1.79 m/s, 241° | - | - |
| 1777873504 | 17.22° C | 59% | 1012 hPa | - | 1.79 m/s, 241° | - | - |
| 1777873126 | -17.78° C | - | 0 hPa | - | 1.79 m/s, 245° | - | - |
| 1777871702 | 15.56° C | 62% | 1012 hPa | - | 1.79 m/s, 245° | - | - |
| 1777870802 | 15.56° C | 64% | 1012 hPa | - | 1.79 m/s, 245° | - | - |
| 1777869903 | 15.56° C | 64% | 1012 hPa | - | 1.79 m/s, 245° | - | - |
| 1777869002 | 10.56° C | 76% | 1012 hPa | - | 1.79 m/s, 242° | - | - |
| 1777868103 | 10.56° C | 76% | 1012 hPa | - | 1.79 m/s, 242° | - | - |
| 1777867203 | 10.56° C | 76% | 1012 hPa | - | 1.79 m/s, 242° | - | - |
| 1777865403 | 10.56° C | 76% | 1012 hPa | - | 1.79 m/s, 242° | - | - |
| 1777847403 | 12.78° C | 80% | 1013 hPa | - | 3.13 m/s, 228° | - | - |
| 1777842006 | 13.89° C | 73% | 1013 hPa | - | 3.13 m/s, 223° | - | - |
| 1777839303 | 15° C | 63% | 1013 hPa | - | 2.24 m/s, 213° | - | - |
| 1777837503 | 15° C | 63% | 1013 hPa | - | 2.24 m/s, 213° | - | - |
| 1777831333 | 15° C | - | 1012 hPa | - | 2.24 m/s, 213° | - | - |
| 1777824132 | -17.78° C | 60% | 1012 hPa | - | 2.68 m/s, 204° | - | - |
| 1777818603 | 18.89° C | 50% | 1012 hPa | - | 4.47 m/s, 230° | - | - |
| 1777806525 | 18.89° C | - | 1014 hPa | - | 0 m/s | - | - |
* Rain since midnight (hover to see other rain measurements)
** Current wind speed in m/s (hover to see current wind gust speed)